sensor_id;sensor_type;location;lat;lon;timestamp;P1;durP1;ratioP1;P2;durP2;ratioP2
46717;SDS011;32448;44.960;-0.698;2023-02-01T00:00:36;8.43;;;5.30;;
46717;SDS011;32448;44.960;-0.698;2023-02-01T00:03:03;8.75;;;5.40;;
46717;SDS011;32448;44.960;-0.698;2023-02-01T00:05:32;11.65;;;6.55;;
46717;SDS011;32448;44.960;-0.698;2023-02-01T00:07:59;11.27;;;7.88;;
46717;SDS011;32448;44.960;-0.698;2023-02-01T00:10:27;28.17;;;15.07;;
46717;SDS011;32448;44.960;-0.698;2023-02-01T00:12:54;30.30;;;16.85;;
46717;SDS011;32448;44.960;-0.698;2023-02-01T00:15:22;23.35;;;13.38;;
46717;SDS011;32448;44.960;-0.698;2023-02-01T00:17:54;19.75;;;10.73;;
46717;SDS011;32448;44.960;-0.698;2023-02-01T00:22:51;24.08;;;12.98;;
46717;SDS011;32448;44.960;-0.698;2023-02-01T00:25:18;25.73;;;12.75;;
46717;SDS011;32448;44.960;-0.698;2023-02-01T00:27:49;25.05;;;12.32;;
46717;SDS011;32448;44.960;-0.698;2023-02-01T00:30:17;19.98;;;10.23;;
46717;SDS011;32448;44.960;-0.698;2023-02-01T00:32:46;15.05;;;8.07;;
46717;SDS011;32448;44.960;-0.698;2023-02-01T00:35:13;11.52;;;6.55;;
46717;SDS011;32448;44.960;-0.698;2023-02-01T00:37:40;12.88;;;5.30;;
46717;SDS011;32448;44.960;-0.698;2023-02-01T00:40:08;9.90;;;5.20;;
46717;SDS011;32448;44.960;-0.698;2023-02-01T00:42:38;8.45;;;5.25;;
46717;SDS011;32448;44.960;-0.698;2023-02-01T00:45:05;10.25;;;4.93;;
46717;SDS011;32448;44.960;-0.698;2023-02-01T00:47:33;9.40;;;4.20;;
46717;SDS011;32448;44.960;-0.698;2023-02-01T00:50:00;8.68;;;5.32;;
46717;SDS011;32448;44.960;-0.698;2023-02-01T00:52:27;12.38;;;6.03;;
46717;SDS011;32448;44.960;-0.698;2023-02-01T00:54:55;11.63;;;7.07;;
46717;SDS011;32448;44.960;-0.698;2023-02-01T00:57:23;14.13;;;7.45;;
46717;SDS011;32448;44.960;-0.698;2023-02-01T00:59:50;11.23;;;6.15;;
46717;SDS011;32448;44.960;-0.698;2023-02-01T01:02:18;12.45;;;5.97;;
46717;SDS011;32448;44.960;-0.698;2023-02-01T01:04:46;14.45;;;4.95;;
46717;SDS011;32448;44.960;-0.698;2023-02-01T01:07:13;10.23;;;4.45;;
46717;SDS011;32448;44.960;-0.698;2023-02-01T01:09:41;10.60;;;4.05;;
46717;SDS011;32448;44.960;-0.698;2023-02-01T01:13:10;6.47;;;2.97;;
46717;SDS011;32448;44.960;-0.698;2023-02-01T01:15:38;6.80;;;3.38;;
46717;SDS011;32448;44.960;-0.698;2023-02-01T01:18:06;4.70;;;2.65;;
46717;SDS011;32448;44.960;-0.698;2023-02-01T01:20:35;6.20;;;2.80;;
46717;SDS011;32448;44.960;-0.698;2023-02-01T01:23:05;6.65;;;3.00;;
46717;SDS011;32448;44.960;-0.698;2023-02-01T01:25:37;6.22;;;3.60;;
46717;SDS011;32448;44.960;-0.698;2023-02-01T01:28:06;8.80;;;4.95;;
46717;SDS011;32448;44.960;-0.698;2023-02-01T01:30:34;10.98;;;5.72;;
46717;SDS011;32448;44.960;-0.698;2023-02-01T01:33:02;10.88;;;4.65;;
46717;SDS011;32448;44.960;-0.698;2023-02-01T01:35:30;9.93;;;3.97;;
46717;SDS011;32448;44.960;-0.698;2023-02-01T01:37:58;11.82;;;4.03;;
46717;SDS011;32448;44.960;-0.698;2023-02-01T01:40:27;6.60;;;3.60;;
46717;SDS011;32448;44.960;-0.698;2023-02-01T01:42:55;7.22;;;3.83;;
46717;SDS011;32448;44.960;-0.698;2023-02-01T01:47:56;8.55;;;3.90;;
46717;SDS011;32448;44.960;-0.698;2023-02-01T01:50:26;8.02;;;3.88;;
46717;SDS011;32448;44.960;-0.698;2023-02-01T01:52:56;12.00;;;6.32;;
46717;SDS011;32448;44.960;-0.698;2023-02-01T01:55:27;12.73;;;7.03;;
46717;SDS011;32448;44.960;-0.698;2023-02-01T01:58:00;14.13;;;7.30;;
46717;SDS011;32448;44.960;-0.698;2023-02-01T02:00:30;16.63;;;7.40;;
46717;SDS011;32448;44.960;-0.698;2023-02-01T02:03:03;14.73;;;6.80;;
46717;SDS011;32448;44.960;-0.698;2023-02-01T02:05:54;11.95;;;4.95;;
46717;SDS011;32448;44.960;-0.698;2023-02-01T02:08:24;7.97;;;4.47;;
46717;SDS011;32448;44.960;-0.698;2023-02-01T02:10:53;8.98;;;4.00;;
46717;SDS011;32448;44.960;-0.698;2023-02-01T02:19:07;6.28;;;2.20;;
46717;SDS011;32448;44.960;-0.698;2023-02-01T02:44:27;100.25;;;35.30;;
46717;SDS011;32448;44.960;-0.698;2023-02-01T02:47:47;144.93;;;47.67;;
46717;SDS011;32448;44.960;-0.698;2023-02-01T02:53:16;18.00;;;8.88;;
46717;SDS011;32448;44.960;-0.698;2023-02-01T02:56:06;41.42;;;20.27;;
46717;SDS011;32448;44.960;-0.698;2023-02-01T02:58:56;41.63;;;22.08;;
46717;SDS011;32448;44.960;-0.698;2023-02-01T03:01:44;10.50;;;5.35;;
46717;SDS011;32448;44.960;-0.698;2023-02-01T03:04:31;5.20;;;2.80;;
46717;SDS011;32448;44.960;-0.698;2023-02-01T03:07:09;7.75;;;2.78;;
46717;SDS011;32448;44.960;-0.698;2023-02-01T03:09:40;5.80;;;2.50;;
46717;SDS011;32448;44.960;-0.698;2023-02-01T03:12:12;5.97;;;2.30;;
46717;SDS011;32448;44.960;-0.698;2023-02-01T03:15:04;7.88;;;2.80;;
46717;SDS011;32448;44.960;-0.698;2023-02-01T03:17:38;10.43;;;3.13;;
46717;SDS011;32448;44.960;-0.698;2023-02-01T03:20:09;7.07;;;2.83;;
46717;SDS011;32448;44.960;-0.698;2023-02-01T03:22:40;7.95;;;3.00;;
46717;SDS011;32448;44.960;-0.698;2023-02-01T03:25:12;7.88;;;2.90;;
46717;SDS011;32448;44.960;-0.698;2023-02-01T03:27:51;11.93;;;5.82;;
46717;SDS011;32448;44.960;-0.698;2023-02-01T03:30:27;13.80;;;5.10;;
46717;SDS011;32448;44.960;-0.698;2023-02-01T03:33:00;10.90;;;4.13;;
46717;SDS011;32448;44.960;-0.698;2023-02-01T03:43:46;6.10;;;3.17;;
46717;SDS011;32448;44.960;-0.698;2023-02-01T03:46:17;5.75;;;2.25;;
46717;SDS011;32448;44.960;-0.698;2023-02-01T03:48:51;9.23;;;2.35;;
46717;SDS011;32448;44.960;-0.698;2023-02-01T03:51:20;7.10;;;3.50;;
46717;SDS011;32448;44.960;-0.698;2023-02-01T03:53:49;6.57;;;3.20;;
46717;SDS011;32448;44.960;-0.698;2023-02-01T03:56:18;8.95;;;2.67;;
46717;SDS011;32448;44.960;-0.698;2023-02-01T03:58:50;10.25;;;2.55;;
46717;SDS011;32448;44.960;-0.698;2023-02-01T04:01:32;7.35;;;2.10;;
46717;SDS011;32448;44.960;-0.698;2023-02-01T04:04:00;5.68;;;2.38;;
46717;SDS011;32448;44.960;-0.698;2023-02-01T04:06:27;4.97;;;2.20;;
46717;SDS011;32448;44.960;-0.698;2023-02-01T04:08:59;9.80;;;2.22;;
46717;SDS011;32448;44.960;-0.698;2023-02-01T04:11:26;6.28;;;2.10;;
46717;SDS011;32448;44.960;-0.698;2023-02-01T04:13:55;6.25;;;2.22;;
46717;SDS011;32448;44.960;-0.698;2023-02-01T04:16:23;4.93;;;1.63;;
46717;SDS011;32448;44.960;-0.698;2023-02-01T04:18:51;4.15;;;1.83;;
46717;SDS011;32448;44.960;-0.698;2023-02-01T04:21:21;4.57;;;1.92;;
46717;SDS011;32448;44.960;-0.698;2023-02-01T04:23:48;4.57;;;1.90;;
46717;SDS011;32448;44.960;-0.698;2023-02-01T04:26:15;4.07;;;2.08;;
46717;SDS011;32448;44.960;-0.698;2023-02-01T04:28:43;5.18;;;2.35;;
46717;SDS011;32448;44.960;-0.698;2023-02-01T04:31:10;9.73;;;2.80;;
46717;SDS011;32448;44.960;-0.698;2023-02-01T04:33:38;7.47;;;3.05;;
46717;SDS011;32448;44.960;-0.698;2023-02-01T04:36:05;12.77;;;7.22;;
46717;SDS011;32448;44.960;-0.698;2023-02-01T04:38:32;14.50;;;8.32;;
46717;SDS011;32448;44.960;-0.698;2023-02-01T04:41:00;13.35;;;8.77;;
46717;SDS011;32448;44.960;-0.698;2023-02-01T04:43:27;14.30;;;7.85;;
46717;SDS011;32448;44.960;-0.698;2023-02-01T04:45:55;7.28;;;4.45;;
46717;SDS011;32448;44.960;-0.698;2023-02-01T04:48:24;6.82;;;2.80;;
46717;SDS011;32448;44.960;-0.698;2023-02-01T04:50:52;4.55;;;2.60;;
46717;SDS011;32448;44.960;-0.698;2023-02-01T04:53:19;5.22;;;2.83;;
46717;SDS011;32448;44.960;-0.698;2023-02-01T04:55:47;15.75;;;10.27;;
46717;SDS011;32448;44.960;-0.698;2023-02-01T04:58:15;18.67;;;12.25;;
46717;SDS011;32448;44.960;-0.698;2023-02-01T05:00:42;13.38;;;10.13;;
46717;SDS011;32448;44.960;-0.698;2023-02-01T05:03:10;8.25;;;5.05;;
46717;SDS011;32448;44.960;-0.698;2023-02-01T05:05:37;6.03;;;3.08;;
46717;SDS011;32448;44.960;-0.698;2023-02-01T05:08:04;9.20;;;2.80;;
46717;SDS011;32448;44.960;-0.698;2023-02-01T05:10:32;8.57;;;3.40;;
46717;SDS011;32448;44.960;-0.698;2023-02-01T05:12:59;10.43;;;3.85;;
46717;SDS011;32448;44.960;-0.698;2023-02-01T05:15:45;10.38;;;4.43;;
46717;SDS011;32448;44.960;-0.698;2023-02-01T05:18:13;11.57;;;4.20;;
46717;SDS011;32448;44.960;-0.698;2023-02-01T05:20:40;12.35;;;4.93;;
46717;SDS011;32448;44.960;-0.698;2023-02-01T05:23:08;12.80;;;5.70;;
46717;SDS011;32448;44.960;-0.698;2023-02-01T05:25:35;14.32;;;6.07;;
46717;SDS011;32448;44.960;-0.698;2023-02-01T05:28:02;13.00;;;5.93;;
46717;SDS011;32448;44.960;-0.698;2023-02-01T05:30:30;11.50;;;4.68;;
46717;SDS011;32448;44.960;-0.698;2023-02-01T05:32:59;11.20;;;4.72;;
46717;SDS011;32448;44.960;-0.698;2023-02-01T05:35:27;11.88;;;4.57;;
46717;SDS011;32448;44.960;-0.698;2023-02-01T05:37:54;10.98;;;3.90;;
46717;SDS011;32448;44.960;-0.698;2023-02-01T05:40:22;10.18;;;4.25;;
46717;SDS011;32448;44.960;-0.698;2023-02-01T05:42:51;8.15;;;3.63;;
46717;SDS011;32448;44.960;-0.698;2023-02-01T05:45:19;9.75;;;3.75;;
46717;SDS011;32448;44.960;-0.698;2023-02-01T05:47:46;8.25;;;3.28;;
46717;SDS011;32448;44.960;-0.698;2023-02-01T05:50:13;9.48;;;3.42;;
46717;SDS011;32448;44.960;-0.698;2023-02-01T05:52:41;8.32;;;3.53;;
46717;SDS011;32448;44.960;-0.698;2023-02-01T05:55:08;6.25;;;3.13;;
46717;SDS011;32448;44.960;-0.698;2023-02-01T05:57:36;8.00;;;3.00;;
46717;SDS011;32448;44.960;-0.698;2023-02-01T06:00:04;8.20;;;2.90;;
46717;SDS011;32448;44.960;-0.698;2023-02-01T06:02:41;8.25;;;2.72;;
46717;SDS011;32448;44.960;-0.698;2023-02-01T06:05:10;6.18;;;2.42;;
46717;SDS011;32448;44.960;-0.698;2023-02-01T06:07:39;11.93;;;3.25;;
46717;SDS011;32448;44.960;-0.698;2023-02-01T06:10:08;8.65;;;2.97;;
46717;SDS011;32448;44.960;-0.698;2023-02-01T06:12:36;10.38;;;3.13;;
46717;SDS011;32448;44.960;-0.698;2023-02-01T06:15:03;5.63;;;2.88;;
46717;SDS011;32448;44.960;-0.698;2023-02-01T06:17:31;7.22;;;3.47;;
46717;SDS011;32448;44.960;-0.698;2023-02-01T06:19:58;6.35;;;3.85;;
46717;SDS011;32448;44.960;-0.698;2023-02-01T06:22:26;7.20;;;3.50;;
46717;SDS011;32448;44.960;-0.698;2023-02-01T06:24:53;8.25;;;4.10;;
46717;SDS011;32448;44.960;-0.698;2023-02-01T06:27:20;9.60;;;3.97;;
46717;SDS011;32448;44.960;-0.698;2023-02-01T06:29:48;8.48;;;3.67;;
46717;SDS011;32448;44.960;-0.698;2023-02-01T06:32:17;8.52;;;4.20;;
46717;SDS011;32448;44.960;-0.698;2023-02-01T06:34:45;7.90;;;3.88;;
46717;SDS011;32448;44.960;-0.698;2023-02-01T06:37:12;13.52;;;5.22;;
46717;SDS011;32448;44.960;-0.698;2023-02-01T06:39:40;12.20;;;6.13;;
46717;SDS011;32448;44.960;-0.698;2023-02-01T06:42:08;8.55;;;4.10;;
46717;SDS011;32448;44.960;-0.698;2023-02-01T06:44:35;7.05;;;3.38;;
46717;SDS011;32448;44.960;-0.698;2023-02-01T06:47:03;6.88;;;3.20;;
46717;SDS011;32448;44.960;-0.698;2023-02-01T06:49:34;8.93;;;3.25;;
46717;SDS011;32448;44.960;-0.698;2023-02-01T06:52:02;9.13;;;3.20;;
46717;SDS011;32448;44.960;-0.698;2023-02-01T06:54:30;11.75;;;3.65;;
46717;SDS011;32448;44.960;-0.698;2023-02-01T06:57:00;11.02;;;4.70;;
46717;SDS011;32448;44.960;-0.698;2023-02-01T06:59:27;13.20;;;4.97;;
46717;SDS011;32448;44.960;-0.698;2023-02-01T07:01:55;15.95;;;6.55;;
46717;SDS011;32448;44.960;-0.698;2023-02-01T07:04:25;10.65;;;6.63;;
46717;SDS011;32448;44.960;-0.698;2023-02-01T07:06:52;13.88;;;5.88;;
46717;SDS011;32448;44.960;-0.698;2023-02-01T07:09:19;21.98;;;7.88;;
46717;SDS011;32448;44.960;-0.698;2023-02-01T07:11:47;37.97;;;11.15;;
46717;SDS011;32448;44.960;-0.698;2023-02-01T07:14:15;57.88;;;17.73;;
46717;SDS011;32448;44.960;-0.698;2023-02-01T07:16:45;54.53;;;15.05;;
46717;SDS011;32448;44.960;-0.698;2023-02-01T07:19:13;42.08;;;13.85;;
46717;SDS011;32448;44.960;-0.698;2023-02-01T07:21:40;55.10;;;15.45;;
46717;SDS011;32448;44.960;-0.698;2023-02-01T07:24:08;58.92;;;16.63;;
46717;SDS011;32448;44.960;-0.698;2023-02-01T07:26:35;80.10;;;21.27;;
46717;SDS011;32448;44.960;-0.698;2023-02-01T07:29:03;102.30;;;28.02;;
46717;SDS011;32448;44.960;-0.698;2023-02-01T07:31:30;93.28;;;24.80;;
46717;SDS011;32448;44.960;-0.698;2023-02-01T07:33:57;62.67;;;18.10;;
46717;SDS011;32448;44.960;-0.698;2023-02-01T07:36:25;29.48;;;9.30;;
46717;SDS011;32448;44.960;-0.698;2023-02-01T07:38:52;17.02;;;5.65;;
46717;SDS011;32448;44.960;-0.698;2023-02-01T07:41:22;10.35;;;3.90;;
46717;SDS011;32448;44.960;-0.698;2023-02-01T07:43:51;8.88;;;3.75;;
46717;SDS011;32448;44.960;-0.698;2023-02-01T07:46:19;11.30;;;4.03;;
46717;SDS011;32448;44.960;-0.698;2023-02-01T07:48:47;10.55;;;4.97;;
46717;SDS011;32448;44.960;-0.698;2023-02-01T07:51:15;16.25;;;5.35;;
46717;SDS011;32448;44.960;-0.698;2023-02-01T07:53:43;15.30;;;7.20;;
46717;SDS011;32448;44.960;-0.698;2023-02-01T07:56:12;16.80;;;7.63;;
46717;SDS011;32448;44.960;-0.698;2023-02-01T07:58:50;17.30;;;7.15;;
46717;SDS011;32448;44.960;-0.698;2023-02-01T08:01:20;15.63;;;6.63;;
46717;SDS011;32448;44.960;-0.698;2023-02-01T08:03:55;13.40;;;5.25;;
46717;SDS011;32448;44.960;-0.698;2023-02-01T08:06:28;14.27;;;5.85;;
46717;SDS011;32448;44.960;-0.698;2023-02-01T08:08:58;11.30;;;5.38;;
46717;SDS011;32448;44.960;-0.698;2023-02-01T08:11:25;12.57;;;6.18;;
46717;SDS011;32448;44.960;-0.698;2023-02-01T08:13:53;14.13;;;6.45;;
46717;SDS011;32448;44.960;-0.698;2023-02-01T08:16:21;18.25;;;9.02;;
46717;SDS011;32448;44.960;-0.698;2023-02-01T08:18:50;24.35;;;13.80;;
46717;SDS011;32448;44.960;-0.698;2023-02-01T08:21:20;17.42;;;10.85;;
46717;SDS011;32448;44.960;-0.698;2023-02-01T08:23:50;13.95;;;7.68;;
46717;SDS011;32448;44.960;-0.698;2023-02-01T08:26:22;15.75;;;7.63;;
46717;SDS011;32448;44.960;-0.698;2023-02-01T08:28:54;12.82;;;6.88;;
46717;SDS011;32448;44.960;-0.698;2023-02-01T08:31:24;16.52;;;7.85;;
46717;SDS011;32448;44.960;-0.698;2023-02-01T08:33:54;17.98;;;7.30;;
46717;SDS011;32448;44.960;-0.698;2023-02-01T08:36:23;15.63;;;7.75;;
46717;SDS011;32448;44.960;-0.698;2023-02-01T08:38:51;16.17;;;7.18;;
46717;SDS011;32448;44.960;-0.698;2023-02-01T08:41:19;12.60;;;6.68;;
46717;SDS011;32448;44.960;-0.698;2023-02-01T08:43:51;12.60;;;7.55;;
46717;SDS011;32448;44.960;-0.698;2023-02-01T08:46:21;14.57;;;7.03;;
46717;SDS011;32448;44.960;-0.698;2023-02-01T08:48:49;16.45;;;8.77;;
46717;SDS011;32448;44.960;-0.698;2023-02-01T08:51:19;13.43;;;7.97;;
46717;SDS011;32448;44.960;-0.698;2023-02-01T08:53:47;16.05;;;8.55;;
46717;SDS011;32448;44.960;-0.698;2023-02-01T08:56:16;14.60;;;8.52;;
46717;SDS011;32448;44.960;-0.698;2023-02-01T08:58:44;20.00;;;9.10;;
46717;SDS011;32448;44.960;-0.698;2023-02-01T09:01:15;19.85;;;9.60;;
46717;SDS011;32448;44.960;-0.698;2023-02-01T09:03:44;22.73;;;10.10;;
46717;SDS011;32448;44.960;-0.698;2023-02-01T09:06:12;18.48;;;10.07;;
46717;SDS011;32448;44.960;-0.698;2023-02-01T09:08:41;32.85;;;13.98;;
46717;SDS011;32448;44.960;-0.698;2023-02-01T09:11:14;27.60;;;12.45;;
46717;SDS011;32448;44.960;-0.698;2023-02-01T09:13:43;24.17;;;9.95;;
46717;SDS011;32448;44.960;-0.698;2023-02-01T09:16:11;14.23;;;7.05;;
46717;SDS011;32448;44.960;-0.698;2023-02-01T09:18:38;13.27;;;7.40;;
46717;SDS011;32448;44.960;-0.698;2023-02-01T09:21:21;14.20;;;7.68;;
46717;SDS011;32448;44.960;-0.698;2023-02-01T09:23:50;15.65;;;7.53;;
46717;SDS011;32448;44.960;-0.698;2023-02-01T09:26:18;22.48;;;8.07;;
46717;SDS011;32448;44.960;-0.698;2023-02-01T09:28:57;26.13;;;11.98;;
46717;SDS011;32448;44.960;-0.698;2023-02-01T09:31:24;21.50;;;9.90;;
46717;SDS011;32448;44.960;-0.698;2023-02-01T09:33:52;17.92;;;7.38;;
46717;SDS011;32448;44.960;-0.698;2023-02-01T09:36:19;14.77;;;6.80;;
46717;SDS011;32448;44.960;-0.698;2023-02-01T09:38:46;18.63;;;7.68;;
46717;SDS011;32448;44.960;-0.698;2023-02-01T09:41:26;12.50;;;6.95;;
46717;SDS011;32448;44.960;-0.698;2023-02-01T09:44:35;15.40;;;6.80;;
46717;SDS011;32448;44.960;-0.698;2023-02-01T09:47:20;17.17;;;7.25;;
46717;SDS011;32448;44.960;-0.698;2023-02-01T09:50:08;16.50;;;8.57;;
46717;SDS011;32448;44.960;-0.698;2023-02-01T09:52:44;14.15;;;8.32;;
46717;SDS011;32448;44.960;-0.698;2023-02-01T09:58:18;20.60;;;7.95;;
46717;SDS011;32448;44.960;-0.698;2023-02-01T10:00:53;19.90;;;7.95;;
46717;SDS011;32448;44.960;-0.698;2023-02-01T10:03:27;16.80;;;4.90;;
46717;SDS011;32448;44.960;-0.698;2023-02-01T10:26:21;18.33;;;5.07;;
46717;SDS011;32448;44.960;-0.698;2023-02-01T10:28:56;17.65;;;5.65;;
46717;SDS011;32448;44.960;-0.698;2023-02-01T10:31:28;15.45;;;4.45;;
46717;SDS011;32448;44.960;-0.698;2023-02-01T10:33:58;16.85;;;4.40;;
46717;SDS011;32448;44.960;-0.698;2023-02-01T10:36:40;16.13;;;4.38;;
46717;SDS011;32448;44.960;-0.698;2023-02-01T10:39:09;14.68;;;4.32;;
46717;SDS011;32448;44.960;-0.698;2023-02-01T10:41:42;12.70;;;3.80;;
46717;SDS011;32448;44.960;-0.698;2023-02-01T10:44:23;15.23;;;4.28;;
46717;SDS011;32448;44.960;-0.698;2023-02-01T10:46:55;15.90;;;4.13;;
46717;SDS011;32448;44.960;-0.698;2023-02-01T10:49:32;13.45;;;3.80;;
46717;SDS011;32448;44.960;-0.698;2023-02-01T10:52:19;19.38;;;4.50;;
46717;SDS011;32448;44.960;-0.698;2023-02-01T10:54:48;15.97;;;3.33;;
46717;SDS011;32448;44.960;-0.698;2023-02-01T10:57:22;11.13;;;3.00;;
46717;SDS011;32448;44.960;-0.698;2023-02-01T10:59:52;17.85;;;3.33;;
46717;SDS011;32448;44.960;-0.698;2023-02-01T11:02:25;18.83;;;3.28;;
46717;SDS011;32448;44.960;-0.698;2023-02-01T11:04:58;13.52;;;4.00;;
46717;SDS011;32448;44.960;-0.698;2023-02-01T11:07:39;15.00;;;3.28;;
46717;SDS011;32448;44.960;-0.698;2023-02-01T11:13:15;23.77;;;4.60;;
46717;SDS011;32448;44.960;-0.698;2023-02-01T11:15:45;17.58;;;3.92;;
46717;SDS011;32448;44.960;-0.698;2023-02-01T11:18:18;16.60;;;3.28;;
46717;SDS011;32448;44.960;-0.698;2023-02-01T11:20:51;15.07;;;3.63;;
46717;SDS011;32448;44.960;-0.698;2023-02-01T11:23:27;11.05;;;3.45;;
46717;SDS011;32448;44.960;-0.698;2023-02-01T11:25:57;10.57;;;3.00;;
46717;SDS011;32448;44.960;-0.698;2023-02-01T11:28:31;18.27;;;3.20;;
46717;SDS011;32448;44.960;-0.698;2023-02-01T11:31:02;15.35;;;4.15;;
46717;SDS011;32448;44.960;-0.698;2023-02-01T11:33:38;15.20;;;2.70;;
46717;SDS011;32448;44.960;-0.698;2023-02-01T11:36:17;15.38;;;2.97;;
46717;SDS011;32448;44.960;-0.698;2023-02-01T11:39:06;15.48;;;3.58;;
46717;SDS011;32448;44.960;-0.698;2023-02-01T11:41:42;10.70;;;2.70;;
46717;SDS011;32448;44.960;-0.698;2023-02-01T11:44:37;14.68;;;2.92;;
46717;SDS011;32448;44.960;-0.698;2023-02-01T11:49:49;8.05;;;2.35;;
46717;SDS011;32448;44.960;-0.698;2023-02-01T11:57:50;11.23;;;2.50;;
46717;SDS011;32448;44.960;-0.698;2023-02-01T12:05:50;14.20;;;2.85;;
46717;SDS011;32448;44.960;-0.698;2023-02-01T12:14:06;10.38;;;2.50;;
46717;SDS011;32448;44.960;-0.698;2023-02-01T12:22:38;13.02;;;2.20;;
46717;SDS011;32448;44.960;-0.698;2023-02-01T12:25:34;12.27;;;2.25;;
46717;SDS011;32448;44.960;-0.698;2023-02-01T12:28:14;8.18;;;2.17;;
46717;SDS011;32448;44.960;-0.698;2023-02-01T12:31:02;10.52;;;2.53;;
46717;SDS011;32448;44.960;-0.698;2023-02-01T12:36:32;16.45;;;2.72;;
46717;SDS011;32448;44.960;-0.698;2023-02-01T12:39:22;12.30;;;2.25;;
46717;SDS011;32448;44.960;-0.698;2023-02-01T12:45:09;11.63;;;2.67;;
46717;SDS011;32448;44.960;-0.698;2023-02-01T12:47:49;8.85;;;2.33;;
46717;SDS011;32448;44.960;-0.698;2023-02-01T12:50:55;9.70;;;2.50;;
46717;SDS011;32448;44.960;-0.698;2023-02-01T12:53:46;12.15;;;1.98;;
46717;SDS011;32448;44.960;-0.698;2023-02-01T12:56:30;10.45;;;2.40;;
46717;SDS011;32448;44.960;-0.698;2023-02-01T12:59:04;8.35;;;1.63;;
46717;SDS011;32448;44.960;-0.698;2023-02-01T13:01:39;11.18;;;2.40;;
46717;SDS011;32448;44.960;-0.698;2023-02-01T13:04:26;8.65;;;1.77;;
46717;SDS011;32448;44.960;-0.698;2023-02-01T13:12:26;14.23;;;2.22;;
46717;SDS011;32448;44.960;-0.698;2023-02-01T13:17:45;8.98;;;1.73;;
46717;SDS011;32448;44.960;-0.698;2023-02-01T13:23:04;9.25;;;2.17;;
46717;SDS011;32448;44.960;-0.698;2023-02-01T13:28:11;13.00;;;5.40;;
46717;SDS011;32448;44.960;-0.698;2023-02-01T13:42:47;4.93;;;1.60;;
46717;SDS011;32448;44.960;-0.698;2023-02-01T13:45:28;4.18;;;1.60;;
46717;SDS011;32448;44.960;-0.698;2023-02-01T13:47:59;10.30;;;2.33;;
46717;SDS011;32448;44.960;-0.698;2023-02-01T13:50:37;22.33;;;2.08;;
46717;SDS011;32448;44.960;-0.698;2023-02-01T13:55:39;8.52;;;2.00;;
46717;SDS011;32448;44.960;-0.698;2023-02-01T14:00:41;5.30;;;1.42;;
46717;SDS011;32448;44.960;-0.698;2023-02-01T14:03:12;7.80;;;1.48;;
46717;SDS011;32448;44.960;-0.698;2023-02-01T14:08:15;6.45;;;1.33;;
46717;SDS011;32448;44.960;-0.698;2023-02-01T14:10:53;4.00;;;1.15;;
46717;SDS011;32448;44.960;-0.698;2023-02-01T14:24:01;3.70;;;0.93;;
46717;SDS011;32448;44.960;-0.698;2023-02-01T14:47:51;0.95;;;0.45;;
46717;SDS011;32448;44.960;-0.698;2023-02-01T14:50:35;1.63;;;0.30;;
46717;SDS011;32448;44.960;-0.698;2023-02-01T14:58:48;5.47;;;0.93;;
46717;SDS011;32448;44.960;-0.698;2023-02-01T15:01:37;4.15;;;0.88;;
46717;SDS011;32448;44.960;-0.698;2023-02-01T15:04:13;1.88;;;0.63;;
46717;SDS011;32448;44.960;-0.698;2023-02-01T15:06:48;3.27;;;0.83;;
46717;SDS011;32448;44.960;-0.698;2023-02-01T15:09:37;3.20;;;0.75;;
46717;SDS011;32448;44.960;-0.698;2023-02-01T15:14:47;2.83;;;0.90;;
46717;SDS011;32448;44.960;-0.698;2023-02-01T15:17:35;2.00;;;0.60;;
46717;SDS011;32448;44.960;-0.698;2023-02-01T15:20:04;2.75;;;0.60;;
46717;SDS011;32448;44.960;-0.698;2023-02-01T15:22:43;2.72;;;0.70;;
46717;SDS011;32448;44.960;-0.698;2023-02-01T15:25:23;1.55;;;0.55;;
46717;SDS011;32448;44.960;-0.698;2023-02-01T15:28:05;2.33;;;0.70;;
46717;SDS011;32448;44.960;-0.698;2023-02-01T15:30:39;1.95;;;0.80;;
46717;SDS011;32448;44.960;-0.698;2023-02-01T15:33:26;2.38;;;0.50;;
46717;SDS011;32448;44.960;-0.698;2023-02-01T15:36:06;3.20;;;0.52;;
46717;SDS011;32448;44.960;-0.698;2023-02-01T15:41:16;1.73;;;0.70;;
46717;SDS011;32448;44.960;-0.698;2023-02-01T15:46:24;2.88;;;0.50;;
46717;SDS011;32448;44.960;-0.698;2023-02-01T15:48:56;2.85;;;0.90;;
46717;SDS011;32448;44.960;-0.698;2023-02-01T15:51:25;3.80;;;0.70;;
46717;SDS011;32448;44.960;-0.698;2023-02-01T15:54:03;1.70;;;0.77;;
46717;SDS011;32448;44.960;-0.698;2023-02-01T15:56:37;2.17;;;1.20;;
46717;SDS011;32448;44.960;-0.698;2023-02-01T15:59:15;2.78;;;1.10;;
46717;SDS011;32448;44.960;-0.698;2023-02-01T16:01:44;3.95;;;1.60;;
46717;SDS011;32448;44.960;-0.698;2023-02-01T16:06:46;4.30;;;1.10;;
46717;SDS011;32448;44.960;-0.698;2023-02-01T16:09:22;2.97;;;1.45;;
46717;SDS011;32448;44.960;-0.698;2023-02-01T16:11:55;4.60;;;1.23;;
46717;SDS011;32448;44.960;-0.698;2023-02-01T16:14:27;2.88;;;1.40;;
46717;SDS011;32448;44.960;-0.698;2023-02-01T16:16:56;2.25;;;0.88;;
46717;SDS011;32448;44.960;-0.698;2023-02-01T16:19:25;3.08;;;0.90;;
46717;SDS011;32448;44.960;-0.698;2023-02-01T16:21:55;2.33;;;0.80;;
46717;SDS011;32448;44.960;-0.698;2023-02-01T16:24:26;2.33;;;0.70;;
46717;SDS011;32448;44.960;-0.698;2023-02-01T16:26:54;1.77;;;0.88;;
46717;SDS011;32448;44.960;-0.698;2023-02-01T16:29:22;2.50;;;1.10;;
46717;SDS011;32448;44.960;-0.698;2023-02-01T16:31:50;4.78;;;1.10;;
46717;SDS011;32448;44.960;-0.698;2023-02-01T16:34:19;3.40;;;1.27;;
46717;SDS011;32448;44.960;-0.698;2023-02-01T16:36:47;3.28;;;1.30;;
46717;SDS011;32448;44.960;-0.698;2023-02-01T16:39:19;3.28;;;1.00;;
46717;SDS011;32448;44.960;-0.698;2023-02-01T16:41:47;2.15;;;0.60;;
46717;SDS011;32448;44.960;-0.698;2023-02-01T16:44:14;1.85;;;0.80;;
46717;SDS011;32448;44.960;-0.698;2023-02-01T16:46:43;1.90;;;0.80;;
46717;SDS011;32448;44.960;-0.698;2023-02-01T16:49:22;5.53;;;1.73;;
46717;SDS011;32448;44.960;-0.698;2023-02-01T16:51:51;6.88;;;2.40;;
46717;SDS011;32448;44.960;-0.698;2023-02-01T16:54:22;5.68;;;2.20;;
46717;SDS011;32448;44.960;-0.698;2023-02-01T16:56:50;9.50;;;1.65;;
46717;SDS011;32448;44.960;-0.698;2023-02-01T16:59:17;4.40;;;1.30;;
46717;SDS011;32448;44.960;-0.698;2023-02-01T17:01:44;4.07;;;1.33;;
46717;SDS011;32448;44.960;-0.698;2023-02-01T17:04:12;4.93;;;1.40;;
46717;SDS011;32448;44.960;-0.698;2023-02-01T17:06:39;4.97;;;1.33;;
46717;SDS011;32448;44.960;-0.698;2023-02-01T17:09:08;3.67;;;1.33;;
46717;SDS011;32448;44.960;-0.698;2023-02-01T17:11:36;3.47;;;1.38;;
46717;SDS011;32448;44.960;-0.698;2023-02-01T17:14:13;2.58;;;1.20;;
46717;SDS011;32448;44.960;-0.698;2023-02-01T17:16:49;2.38;;;1.25;;
46717;SDS011;32448;44.960;-0.698;2023-02-01T17:19:20;2.60;;;1.50;;
46717;SDS011;32448;44.960;-0.698;2023-02-01T17:21:53;5.47;;;1.48;;
46717;SDS011;32448;44.960;-0.698;2023-02-01T17:24:26;2.92;;;1.60;;
46717;SDS011;32448;44.960;-0.698;2023-02-01T17:27:13;4.50;;;2.05;;
46717;SDS011;32448;44.960;-0.698;2023-02-01T17:29:42;3.60;;;1.75;;
46717;SDS011;32448;44.960;-0.698;2023-02-01T17:32:15;4.00;;;2.40;;
46717;SDS011;32448;44.960;-0.698;2023-02-01T17:34:48;7.93;;;4.43;;
46717;SDS011;32448;44.960;-0.698;2023-02-01T17:39:52;10.07;;;5.03;;
46717;SDS011;32448;44.960;-0.698;2023-02-01T17:42:23;7.45;;;4.45;;
46717;SDS011;32448;44.960;-0.698;2023-02-01T17:45:00;9.13;;;4.07;;
46717;SDS011;32448;44.960;-0.698;2023-02-01T17:47:47;13.82;;;6.45;;
46717;SDS011;32448;44.960;-0.698;2023-02-01T17:50:15;17.23;;;6.35;;
46717;SDS011;32448;44.960;-0.698;2023-02-01T17:52:43;16.17;;;6.88;;
46717;SDS011;32448;44.960;-0.698;2023-02-01T17:55:19;17.42;;;6.45;;
46717;SDS011;32448;44.960;-0.698;2023-02-01T17:57:50;17.45;;;6.80;;
46717;SDS011;32448;44.960;-0.698;2023-02-01T18:00:18;15.98;;;6.75;;